createdAt,value
2022-09-26T00:01:42.993Z,11.38
2022-09-26T00:04:16.092Z,11.39
2022-09-26T00:06:44.334Z,11.40
2022-09-26T00:09:14.907Z,11.43
2022-09-26T00:11:43.327Z,11.45
2022-09-26T00:14:20.365Z,11.47
2022-09-26T00:16:48.807Z,11.48
2022-09-26T00:19:17.703Z,11.47
2022-09-26T00:21:45.966Z,11.45
2022-09-26T00:24:15.139Z,11.43
2022-09-26T00:26:43.781Z,11.42
2022-09-26T00:29:13.973Z,11.42
2022-09-26T00:31:45.047Z,11.41
2022-09-26T00:34:17.945Z,11.41
2022-09-26T00:36:46.289Z,11.40
2022-09-26T00:39:16.695Z,11.39
2022-09-26T00:41:45.782Z,11.38
2022-09-26T00:44:37.617Z,11.38
2022-09-26T00:47:11.563Z,11.38
2022-09-26T00:49:44.720Z,11.41
2022-09-26T00:52:22.066Z,11.42
2022-09-26T00:54:54.959Z,11.41
2022-09-26T00:57:29.752Z,11.42
2022-09-26T01:00:02.811Z,11.42
2022-09-26T01:02:31.531Z,11.43
2022-09-26T01:05:00.957Z,11.44
2022-09-26T01:07:30.279Z,11.44
2022-09-26T01:09:59.354Z,11.45
2022-09-26T01:12:27.772Z,11.45
2022-09-26T01:14:58.319Z,11.44
2022-09-26T01:17:27.619Z,11.43
2022-09-26T01:20:11.866Z,11.42
2022-09-26T01:23:04.299Z,11.40
2022-09-26T01:25:50.902Z,11.39
2022-09-26T01:28:44.009Z,11.36
2022-09-26T01:32:06.574Z,11.35
2022-09-26T01:34:54.034Z,11.36
2022-09-26T01:37:51.677Z,11.36
2022-09-26T01:40:53.936Z,11.35
2022-09-26T01:43:40.178Z,11.30
2022-09-26T01:46:14.391Z,11.28
2022-09-26T01:48:52.921Z,11.25
2022-09-26T01:51:32.936Z,11.21
2022-09-26T01:54:18.162Z,11.17
2022-09-26T01:56:48.999Z,11.12
2022-09-26T01:59:41.062Z,11.06
2022-09-26T02:02:19.463Z,10.98
2022-09-26T02:04:53.535Z,10.92
2022-09-26T02:07:34.595Z,10.84
2022-09-26T02:10:28.974Z,10.74
2022-09-26T02:13:11.739Z,10.66
2022-09-26T02:15:40.631Z,10.58
2022-09-26T02:18:29.073Z,10.50
2022-09-26T02:21:12.187Z,10.45
2022-09-26T02:23:40.480Z,10.39
2022-09-26T02:26:09.119Z,10.38
2022-09-26T02:28:37.454Z,10.35
2022-09-26T02:31:08.640Z,10.32
2022-09-26T02:33:37.010Z,10.27
2022-09-26T02:36:10.502Z,10.24
2022-09-26T02:38:38.782Z,10.21
2022-09-26T02:42:01.047Z,10.17
2022-09-26T02:44:36.180Z,10.15
2022-09-26T02:47:16.626Z,10.14
2022-09-26T02:50:09.063Z,10.15
2022-09-26T02:52:56.559Z,10.17
2022-09-26T02:55:41.249Z,10.18
2022-09-26T02:58:36.144Z,10.17
2022-09-26T03:01:16.153Z,10.16
2022-09-26T03:04:14.984Z,10.16
2022-09-26T03:06:46.808Z,10.16
2022-09-26T03:09:17.904Z,10.18
2022-09-26T03:11:47.928Z,10.19
2022-09-26T03:14:18.343Z,10.19
2022-09-26T03:16:51.576Z,10.20
2022-09-26T03:19:33.944Z,10.21
2022-09-26T03:22:02.724Z,10.21
2022-09-26T03:24:32.926Z,10.21
2022-09-26T03:27:05.314Z,10.21
2022-09-26T03:29:34.446Z,10.21
2022-09-26T03:32:03.032Z,10.20
2022-09-26T03:34:31.542Z,10.19
2022-09-26T03:37:01.159Z,10.17
2022-09-26T03:39:29.385Z,10.13
2022-09-26T03:42:10.733Z,10.09
2022-09-26T03:44:40.410Z,10.08
2022-09-26T03:47:08.694Z,10.06
2022-09-26T03:49:41.099Z,10.05
2022-09-26T03:52:13.964Z,10.04
2022-09-26T03:54:44.382Z,10.03
2022-09-26T03:57:14.114Z,10.03
2022-09-26T03:59:49.537Z,10.01
2022-09-26T04:02:20.032Z,10.00
2022-09-26T04:04:50.033Z,9.98
2022-09-26T04:07:18.267Z,9.97
2022-09-26T04:09:48.835Z,9.97
2022-09-26T04:12:18.129Z,9.96
2022-09-26T04:14:46.970Z,9.97
2022-09-26T04:17:15.223Z,9.97
2022-09-26T04:19:45.517Z,9.97
2022-09-26T04:22:14.033Z,9.98
2022-09-26T04:24:42.392Z,9.98
2022-09-26T04:27:10.717Z,9.96
2022-09-26T04:29:39.507Z,9.95
2022-09-26T04:32:28.176Z,9.94
2022-09-26T04:35:19.261Z,9.96
2022-09-26T04:37:47.719Z,9.97
2022-09-26T04:40:16.350Z,9.97
2022-09-26T04:42:54.795Z,9.98
2022-09-26T04:45:23.368Z,10.00
2022-09-26T04:47:51.697Z,10.03
2022-09-26T04:50:26.469Z,10.04
2022-09-26T04:53:09.283Z,10.07
2022-09-26T04:55:46.845Z,10.09
2022-09-26T04:58:16.756Z,10.11
2022-09-26T05:00:48.077Z,10.13
2022-09-26T05:03:19.156Z,10.16
2022-09-26T05:05:47.589Z,10.19
2022-09-26T05:08:16.298Z,10.23
2022-09-26T05:10:44.582Z,10.27
2022-09-26T05:13:12.911Z,10.29
2022-09-26T05:15:43.177Z,10.32
2022-09-26T05:18:11.869Z,10.33
2022-09-26T05:20:40.337Z,10.36
2022-09-26T05:23:10.504Z,10.38
2022-09-26T05:25:59.617Z,10.40
2022-09-26T05:28:27.950Z,10.42
2022-09-26T05:30:57.014Z,10.44
2022-09-26T05:33:25.344Z,10.43
2022-09-26T05:35:54.195Z,10.44
2022-09-26T05:38:22.562Z,10.46
2022-09-26T05:40:56.888Z,10.48
2022-09-26T05:43:31.046Z,10.51
2022-09-26T05:46:01.553Z,10.53
2022-09-26T05:48:36.662Z,10.56
2022-09-26T05:51:12.593Z,10.59
2022-09-26T05:53:45.103Z,10.64
2022-09-26T05:56:18.953Z,10.67
2022-09-26T05:59:07.105Z,10.73
2022-09-26T06:02:08.338Z,10.80
2022-09-26T06:04:54.209Z,10.86
2022-09-26T06:07:34.946Z,10.92
2022-09-26T06:10:06.695Z,10.97
2022-09-26T06:12:55.170Z,11.03
2022-09-26T06:15:25.163Z,11.09
2022-09-26T06:18:04.494Z,11.15
2022-09-26T06:20:33.930Z,11.24
2022-09-26T06:23:02.250Z,11.31
2022-09-26T06:25:30.519Z,11.38
2022-09-26T06:28:02.058Z,11.43
2022-09-26T06:30:31.594Z,11.48
2022-09-26T06:33:11.454Z,11.53
2022-09-26T06:36:06.577Z,11.58
2022-09-26T06:38:38.568Z,11.62
2022-09-26T06:41:11.208Z,11.65
2022-09-26T06:43:41.058Z,11.69
2022-09-26T06:46:28.281Z,11.74
2022-09-26T06:48:59.364Z,11.76
2022-09-26T06:51:49.475Z,11.78
2022-09-26T06:54:19.072Z,11.82
2022-09-26T06:56:48.311Z,11.84
2022-09-26T06:59:17.962Z,11.86
2022-09-26T07:02:04.266Z,11.89
2022-09-26T07:05:02.883Z,11.89
2022-09-26T07:07:42.369Z,11.90
2022-09-26T07:10:21.247Z,11.91
2022-09-26T07:13:07.263Z,11.92
2022-09-26T07:15:37.134Z,11.94
2022-09-26T07:18:31.709Z,11.96
2022-09-26T07:21:15.390Z,11.97
2022-09-26T07:24:19.287Z,11.97
2022-09-26T07:26:47.643Z,11.97
2022-09-26T07:29:16.100Z,11.97
2022-09-26T07:31:44.736Z,11.99
2022-09-26T07:34:26.094Z,11.98
2022-09-26T07:36:54.451Z,12.00
2022-09-26T07:39:23.642Z,12.02
2022-09-26T07:41:52.757Z,12.05
2022-09-26T07:47:27.998Z,12.14
2022-09-26T07:50:13.475Z,12.17
2022-09-26T07:53:00.554Z,12.19
2022-09-26T07:55:28.991Z,12.24
2022-09-26T07:58:34.049Z,12.30
2022-09-26T08:01:26.121Z,12.36
2022-09-26T08:04:00.603Z,12.37
2022-09-26T08:06:37.550Z,12.39
2022-09-26T08:09:07.105Z,12.43
2022-09-26T08:11:56.022Z,12.48
2022-09-26T08:14:42.584Z,12.55
2022-09-26T08:17:21.567Z,12.59
2022-09-26T08:19:49.991Z,12.63
2022-09-26T08:22:18.367Z,12.68
2022-09-26T08:24:51.018Z,12.74
2022-09-26T08:27:38.207Z,12.81
2022-09-26T08:30:07.816Z,12.86
2022-09-26T08:32:37.341Z,12.90
2022-09-26T08:35:06.416Z,12.93
2022-09-26T08:37:53.591Z,12.98
2022-09-26T08:41:02.118Z,13.02
2022-09-26T08:44:10.171Z,13.07
2022-09-26T08:47:05.991Z,13.08
2022-09-26T08:49:54.752Z,13.14
2022-09-26T08:52:45.005Z,13.22
2022-09-26T08:55:24.211Z,13.27
2022-09-26T08:58:13.329Z,13.36
2022-09-26T09:00:42.252Z,13.44
2022-09-26T09:03:19.238Z,13.46
2022-09-26T09:05:59.364Z,13.50
2022-09-26T09:08:38.936Z,13.55
2022-09-26T09:11:58.073Z,13.59
2022-09-26T09:14:27.485Z,13.62
2022-09-26T09:17:47.199Z,13.64
2022-09-26T09:21:12.024Z,13.65
2022-09-26T09:24:19.237Z,13.65
2022-09-26T09:30:22.834Z,13.63
2022-09-26T09:33:05.834Z,13.63
2022-09-26T09:35:54.942Z,13.63
2022-09-26T09:38:37.202Z,13.63
2022-09-26T09:41:36.471Z,13.67
2022-09-26T09:44:16.505Z,13.70
2022-09-26T09:46:45.071Z,13.70
2022-09-26T09:49:31.310Z,13.72
2022-09-26T09:52:20.253Z,13.73
2022-09-26T09:55:16.567Z,13.76
2022-09-26T09:58:09.759Z,13.78
2022-09-26T10:00:49.053Z,13.82
2022-09-26T10:03:31.183Z,13.88
2022-09-26T10:06:02.003Z,13.96
2022-09-26T10:08:37.182Z,14.04
2022-09-26T10:11:41.761Z,14.11
2022-09-26T10:14:42.854Z,14.22
2022-09-26T10:17:29.919Z,14.30
2022-09-26T10:20:36.869Z,14.32
2022-09-26T10:23:30.985Z,14.27
2022-09-26T10:26:11.383Z,14.24
2022-09-26T10:28:53.031Z,14.25
2022-09-26T10:31:30.170Z,14.25
2022-09-26T10:34:28.163Z,14.24
2022-09-26T10:36:57.016Z,14.18
2022-09-26T10:39:49.203Z,14.16
2022-09-26T10:42:21.271Z,14.13
2022-09-26T10:44:57.756Z,14.11
2022-09-26T10:47:47.583Z,14.08
2022-09-26T10:50:36.763Z,14.03
2022-09-26T10:53:41.430Z,13.96
2022-09-26T10:56:20.387Z,13.92
2022-09-26T10:58:52.219Z,13.89
2022-09-26T11:01:31.512Z,13.86
2022-09-26T11:04:43.134Z,13.86
2022-09-26T11:07:52.573Z,13.85
2022-09-26T11:10:46.794Z,13.86
2022-09-26T11:13:30.189Z,13.83
2022-09-26T11:16:08.891Z,13.82
2022-09-26T11:18:49.698Z,13.85
2022-09-26T11:21:41.420Z,13.87
2022-09-26T11:24:46.063Z,13.94
2022-09-26T11:27:31.747Z,14.01
2022-09-26T11:30:09.830Z,14.05
2022-09-26T11:32:45.308Z,14.09
2022-09-26T11:36:11.185Z,14.15
2022-09-26T11:38:46.481Z,14.25
2022-09-26T11:41:59.678Z,14.32
2022-09-26T11:44:58.761Z,14.49
2022-09-26T11:47:49.968Z,14.58
2022-09-26T11:50:58.838Z,14.55
2022-09-26T11:53:55.481Z,14.59
2022-09-26T11:56:48.444Z,14.75
2022-09-26T11:59:31.730Z,14.92
2022-09-26T12:02:03.648Z,14.94
2022-09-26T12:05:14.162Z,14.99
2022-09-26T12:08:00.563Z,15.17
2022-09-26T12:10:53.397Z,15.27
2022-09-26T12:13:40.498Z,15.50
2022-09-26T12:16:36.051Z,15.92
2022-09-26T12:19:19.996Z,16.53
2022-09-26T12:22:25.758Z,16.90
2022-09-26T12:25:07.428Z,17.05
2022-09-26T12:28:01.822Z,17.12
2022-09-26T12:30:40.690Z,17.03
2022-09-26T12:33:08.844Z,17.03
2022-09-26T12:36:19.099Z,17.24
2022-09-26T12:39:08.926Z,17.26
2022-09-26T12:42:09.078Z,17.24
2022-09-26T12:44:39.952Z,17.20
2022-09-26T12:47:15.490Z,17.42
2022-09-26T12:50:02.894Z,17.84
2022-09-26T12:52:44.792Z,18.19
2022-09-26T12:55:45.117Z,18.40
2022-09-26T12:58:43.927Z,18.86
2022-09-26T13:01:31.264Z,19.30
2022-09-26T13:04:21.978Z,19.40
2022-09-26T13:07:14.308Z,19.63
2022-09-26T13:09:44.374Z,19.69
2022-09-26T13:12:47.642Z,19.76
2022-09-26T13:16:18.735Z,19.54
2022-09-26T13:19:01.622Z,19.51
2022-09-26T13:21:47.618Z,19.59
2022-09-26T13:24:25.599Z,19.59
2022-09-26T13:27:04.655Z,19.67
2022-09-26T13:29:37.647Z,19.81
2022-09-26T13:32:35.585Z,19.99
2022-09-26T13:35:17.010Z,19.95
2022-09-26T13:38:01.272Z,19.78
2022-09-26T13:40:51.944Z,19.53
2022-09-26T13:43:43.715Z,19.32
2022-09-26T13:46:30.454Z,19.15
2022-09-26T13:49:31.270Z,19.01
2022-09-26T13:52:17.844Z,18.86
2022-09-26T13:55:02.938Z,18.65
2022-09-26T13:58:09.995Z,18.41
2022-09-26T14:00:41.032Z,18.11
2022-09-26T14:03:18.527Z,17.83
2022-09-26T14:05:52.844Z,17.56
2022-09-26T14:08:45.699Z,17.30
2022-09-26T14:11:32.742Z,17.11
2022-09-26T14:14:19.518Z,16.94
2022-09-26T14:16:51.278Z,16.83
2022-09-26T14:19:57.337Z,16.73
2022-09-26T14:22:25.919Z,16.63
2022-09-26T14:24:56.076Z,16.53
2022-09-26T14:27:37.441Z,16.46
2022-09-26T14:30:24.496Z,16.42
2022-09-26T14:33:02.246Z,16.38
2022-09-26T14:35:34.729Z,16.34
2022-09-26T14:38:09.803Z,16.29
2022-09-26T14:40:39.208Z,16.27
2022-09-26T14:43:16.308Z,16.26
2022-09-26T14:46:00.738Z,16.24
2022-09-26T14:48:29.030Z,16.20
2022-09-26T14:51:21.736Z,16.15
2022-09-26T14:54:17.252Z,16.10
2022-09-26T14:56:57.263Z,16.07
2022-09-26T14:59:25.569Z,16.03
2022-09-26T15:02:21.887Z,15.97
2022-09-26T15:05:06.819Z,15.87
2022-09-26T15:07:43.960Z,15.82
2022-09-26T15:10:12.171Z,15.75
2022-09-26T15:13:18.508Z,15.68
2022-09-26T15:16:11.797Z,15.53
2022-09-26T15:19:05.619Z,15.40
2022-09-26T15:21:40.327Z,15.28
2022-09-26T15:24:27.767Z,15.16
2022-09-26T15:26:58.632Z,15.02
2022-09-26T15:29:27.584Z,14.95
2022-09-26T15:31:56.107Z,14.88
2022-09-26T15:34:33.969Z,14.82
2022-09-26T15:37:14.667Z,14.72
2022-09-26T15:39:43.477Z,14.64
2022-09-26T15:42:33.493Z,14.56
2022-09-26T15:45:15.664Z,14.46
2022-09-26T15:47:44.190Z,14.35
2022-09-26T15:50:23.481Z,14.26
2022-09-26T15:53:14.047Z,14.13
2022-09-26T15:55:48.014Z,14.00
2022-09-26T15:58:21.035Z,13.91
2022-09-26T16:00:52.357Z,13.82
2022-09-26T16:03:26.700Z,13.73
2022-09-26T16:05:55.406Z,13.64
2022-09-26T16:08:32.076Z,13.56
2022-09-26T16:11:02.073Z,13.47
2022-09-26T16:13:42.991Z,13.37
2022-09-26T16:16:19.086Z,13.27
2022-09-26T16:18:56.488Z,13.18
2022-09-26T16:21:32.223Z,13.09
2022-09-26T16:24:34.516Z,12.97
2022-09-26T16:27:22.840Z,12.86
2022-09-26T16:29:52.386Z,12.77
2022-09-26T16:32:22.768Z,12.68
2022-09-26T16:34:51.210Z,12.59
2022-09-26T16:37:23.114Z,12.45
2022-09-26T16:39:59.906Z,12.35
2022-09-26T16:42:32.943Z,12.30
2022-09-26T16:45:05.552Z,12.23
2022-09-26T16:47:45.304Z,12.16
2022-09-26T16:50:33.637Z,12.05
2022-09-26T16:53:03.367Z,11.95
2022-09-26T16:55:34.302Z,11.90
2022-09-26T16:58:05.358Z,11.80
2022-09-26T17:00:54.263Z,11.73
2022-09-26T17:03:29.947Z,11.68
2022-09-26T17:05:59.813Z,11.63
2022-09-26T17:08:28.734Z,11.56
2022-09-26T17:11:03.162Z,11.48
2022-09-26T17:13:35.619Z,11.46
2022-09-26T17:16:04.156Z,11.44
2022-09-26T17:18:35.073Z,11.41
2022-09-26T17:21:03.441Z,11.39
2022-09-26T17:23:40.538Z,11.35
2022-09-26T17:26:19.477Z,11.30
2022-09-26T17:28:49.597Z,11.26
2022-09-26T17:31:21.818Z,11.23
2022-09-26T17:33:53.466Z,11.16
2022-09-26T17:36:26.325Z,11.07
2022-09-26T17:38:57.827Z,11.00
2022-09-26T17:41:28.080Z,10.91
2022-09-26T17:44:00.857Z,10.83
2022-09-26T17:46:30.393Z,10.79
2022-09-26T17:48:59.525Z,10.72
2022-09-26T17:51:29.474Z,10.66
2022-09-26T17:53:57.927Z,10.60
2022-09-26T17:56:26.622Z,10.53
2022-09-26T17:58:55.790Z,10.46
2022-09-26T18:01:28.311Z,10.40
2022-09-26T18:04:01.138Z,10.36
2022-09-26T18:06:33.015Z,10.36
2022-09-26T18:09:07.740Z,10.39
2022-09-26T18:11:37.485Z,10.45
2022-09-26T18:14:08.308Z,10.54
2022-09-26T18:16:36.727Z,10.61
2022-09-26T18:19:07.605Z,10.68
2022-09-26T18:21:36.760Z,10.77
2022-09-26T18:24:07.166Z,10.83
2022-09-26T18:26:42.412Z,10.87
2022-09-26T18:29:15.393Z,10.91
2022-09-26T18:31:46.010Z,10.94
2022-09-26T18:34:18.791Z,10.97
2022-09-26T18:36:49.133Z,11.00
2022-09-26T18:39:17.595Z,11.03
2022-09-26T18:41:46.256Z,11.05
2022-09-26T18:44:17.480Z,11.06
2022-09-26T18:46:48.338Z,11.07
2022-09-26T18:49:17.552Z,11.10
2022-09-26T18:51:46.968Z,11.10
2022-09-26T18:54:17.757Z,11.10
2022-09-26T18:57:05.553Z,11.10
2022-09-26T18:59:33.824Z,11.09
2022-09-26T19:02:04.337Z,11.09
2022-09-26T19:04:33.526Z,11.07
2022-09-26T19:07:06.765Z,11.07
2022-09-26T19:09:36.540Z,11.06
2022-09-26T19:12:05.218Z,11.05
2022-09-26T19:14:33.513Z,11.04
2022-09-26T19:17:01.843Z,11.04
2022-09-26T19:19:32.544Z,11.03
2022-09-26T19:22:08.267Z,11.03
2022-09-26T19:24:59.539Z,11.01
2022-09-26T19:27:36.295Z,10.99
2022-09-26T19:30:17.138Z,10.97
2022-09-26T19:32:56.311Z,10.95
2022-09-26T19:35:31.949Z,10.94
2022-09-26T19:38:01.732Z,10.93
2022-09-26T19:40:30.292Z,10.90
2022-09-26T19:42:59.055Z,10.84
2022-09-26T19:45:27.457Z,10.80
2022-09-26T19:47:56.272Z,10.75
2022-09-26T19:50:28.819Z,10.69
2022-09-26T19:53:00.843Z,10.59
2022-09-26T19:55:31.019Z,10.52
2022-09-26T19:58:12.395Z,10.46
2022-09-26T20:00:43.625Z,10.37
2022-09-26T20:03:25.627Z,10.32
2022-09-26T20:05:54.167Z,10.30
2022-09-26T20:08:25.641Z,10.29
2022-09-26T20:10:55.934Z,10.24
2022-09-26T20:13:24.233Z,10.17
2022-09-26T20:15:52.570Z,10.09
2022-09-26T20:18:24.649Z,10.03
2022-09-26T20:20:55.747Z,9.96
2022-09-26T20:23:27.543Z,9.93
2022-09-26T20:25:56.624Z,9.93
2022-09-26T20:28:24.998Z,9.95
2022-09-26T20:30:55.550Z,9.95
2022-09-26T20:33:26.329Z,9.93
2022-09-26T20:36:03.012Z,9.86
2022-09-26T20:38:48.231Z,9.79
2022-09-26T20:41:36.219Z,9.74
2022-09-26T20:44:29.312Z,9.67
2022-09-26T20:47:04.714Z,9.64
2022-09-26T20:49:43.972Z,9.60
2022-09-26T20:52:20.852Z,9.55
2022-09-26T20:54:50.097Z,9.50
2022-09-26T20:57:19.834Z,9.45
2022-09-26T20:59:48.872Z,9.42
2022-09-26T21:02:23.666Z,9.39
2022-09-26T21:04:52.448Z,9.37
2022-09-26T21:07:21.264Z,9.37
2022-09-26T21:09:50.528Z,9.36
2022-09-26T21:12:19.350Z,9.35
2022-09-26T21:14:47.981Z,9.35
2022-09-26T21:17:27.661Z,9.34
2022-09-26T21:19:56.255Z,9.32
2022-09-26T21:22:47.675Z,9.30
2022-09-26T21:25:18.842Z,9.27
2022-09-26T21:27:56.601Z,9.22
2022-09-26T21:30:25.558Z,9.16
2022-09-26T21:32:57.379Z,9.08
2022-09-26T21:35:29.623Z,9.04
2022-09-26T21:38:00.876Z,9.00
2022-09-26T21:40:32.342Z,8.97
2022-09-26T21:43:11.767Z,8.93
2022-09-26T21:45:43.705Z,8.90
2022-09-26T21:48:14.142Z,8.88
2022-09-26T21:50:47.436Z,8.84
2022-09-26T21:53:22.014Z,8.82
2022-09-26T21:55:55.163Z,8.77
2022-09-26T21:58:28.074Z,8.72
2022-09-26T22:00:57.813Z,8.67
2022-09-26T22:03:26.255Z,8.62
2022-09-26T22:05:54.493Z,8.56
2022-09-26T22:08:22.804Z,8.51
2022-09-26T22:10:54.078Z,8.46
2022-09-26T22:13:22.278Z,8.42
2022-09-26T22:15:50.591Z,8.37
2022-09-26T22:18:18.769Z,8.34
2022-09-26T22:20:47.287Z,8.32
2022-09-26T22:23:15.461Z,8.32
2022-09-26T22:25:49.586Z,8.31
2022-09-26T22:28:18.062Z,8.33
2022-09-26T22:30:46.336Z,8.34
2022-09-26T22:33:14.685Z,8.34
2022-09-26T22:35:47.440Z,8.34
2022-09-26T22:38:16.095Z,8.34
2022-09-26T22:40:45.555Z,8.34
2022-09-26T22:43:13.862Z,8.34
2022-09-26T22:45:42.048Z,8.34
2022-09-26T22:48:10.253Z,8.32
2022-09-26T22:50:38.451Z,8.30
2022-09-26T22:53:06.667Z,8.25
2022-09-26T22:55:34.941Z,8.24
2022-09-26T22:58:03.349Z,8.23
2022-09-26T23:00:31.701Z,8.20
2022-09-26T23:02:59.932Z,8.15
2022-09-26T23:05:28.256Z,8.10
2022-09-26T23:07:56.521Z,8.07
2022-09-26T23:10:25.058Z,8.06
2022-09-26T23:12:53.351Z,8.04
2022-09-26T23:15:21.651Z,8.04
2022-09-26T23:17:49.971Z,8.02
2022-09-26T23:20:18.169Z,8.00
2022-09-26T23:22:46.401Z,7.96
2022-09-26T23:25:14.720Z,7.93
2022-09-26T23:27:42.920Z,7.92
2022-09-26T23:30:11.846Z,7.89
2022-09-26T23:32:40.115Z,7.88
2022-09-26T23:35:08.541Z,7.85
2022-09-26T23:37:36.691Z,7.82
2022-09-26T23:40:05.408Z,7.79
2022-09-26T23:42:33.670Z,7.77
2022-09-26T23:45:01.970Z,7.76
2022-09-26T23:47:30.235Z,7.73
2022-09-26T23:49:58.475Z,7.72
2022-09-26T23:52:26.697Z,7.71
2022-09-26T23:54:54.960Z,7.69
2022-09-26T23:57:24.197Z,7.66
2022-09-26T23:59:52.479Z,7.62
